METAR Data
IDs: Format: Raw Decoded Include TAF

Data at: 1856 UTC 26 Sep 2021

METAR for:KNDZ (Milton/Whiting-S(NAS, FL, US)
Text:KNDZ 261756Z AUTO VRB06KT 10SM CLR 29/16 A3011 RMK AO2 SLP181 T02890156 10294 20150 58012 $
Temperature: 28.9°C ( 84°F)
Dewpoint: 15.6°C ( 60°F) [RH = 45%]
Pressure (altimeter):30.11 inches Hg (1019.7 mb) [Sea level pressure: 1018.1 mb]
Winds:variable direction winds at 7 MPH (6 knots; 3.1 m/s)
Visibility:10 or more sm (16+ km)
Ceiling:at least 12,000 feet AGL
Clouds:sky clear below 12,000 feet AGL
QC Flag:automated observation with no human augmentation; SOME DATA ABOVE MAY BE INACCURATE!!!"$" is an indication the sensor requires maintenance.

TAF for:KNDZ (Milton/Whiting-S(NAS, FL, US)
Text:No data found